createdAt,value
2022-10-20T00:04:30.190Z,12.87
2022-10-20T00:09:33.284Z,11.40
2022-10-20T00:14:36.592Z,9.43
2022-10-20T00:19:39.951Z,13.23
2022-10-20T00:24:43.360Z,18.53
2022-10-20T00:29:49.320Z,14.57
2022-10-20T00:34:52.862Z,13.67
2022-10-20T00:39:56.270Z,11.63
2022-10-20T00:45:01.549Z,15.23
2022-10-20T00:50:18.250Z,13.47
2022-10-20T00:55:26.148Z,16.60
2022-10-20T01:00:30.108Z,19.67
2022-10-20T01:05:34.010Z,20.10
2022-10-20T01:10:46.670Z,16.37
2022-10-20T01:16:08.446Z,18.70
2022-10-20T01:21:42.206Z,12.50
2022-10-20T01:27:02.561Z,16.03
2022-10-20T01:32:33.901Z,13.37
2022-10-20T01:37:49.463Z,11.70
2022-10-20T01:42:55.000Z,15.37
2022-10-20T01:48:00.209Z,16.97
2022-10-20T01:53:04.320Z,15.53
2022-10-20T01:58:07.631Z,16.00
2022-10-20T02:03:36.838Z,15.63
2022-10-20T02:08:56.894Z,13.13
2022-10-20T02:14:00.820Z,16.77
2022-10-20T02:19:06.068Z,15.30
2022-10-20T02:24:11.199Z,14.03
2022-10-20T02:29:18.740Z,13.07
2022-10-20T02:34:22.130Z,19.33
2022-10-20T02:39:26.580Z,11.30
2022-10-20T02:44:30.521Z,14.93
2022-10-20T02:49:33.549Z,14.03
2022-10-20T02:54:36.822Z,12.20
2022-10-20T02:59:40.000Z,14.30
2022-10-20T03:04:43.280Z,15.47
2022-10-20T03:09:46.422Z,21.60
2022-10-20T03:14:49.910Z,11.63
2022-10-20T03:19:53.282Z,11.60
2022-10-20T03:24:56.520Z,15.83
2022-10-20T03:29:59.884Z,19.87
2022-10-20T03:35:03.340Z,14.97
2022-10-20T03:40:07.382Z,13.10
2022-10-20T03:45:12.697Z,16.03
2022-10-20T03:50:18.112Z,14.53
2022-10-20T03:55:21.501Z,16.23
2022-10-20T04:00:24.973Z,13.60
2022-10-20T04:05:28.331Z,17.50
2022-10-20T04:10:32.012Z,14.73
2022-10-20T04:15:35.353Z,18.80
2022-10-20T04:20:40.694Z,19.30
2022-10-20T04:25:49.132Z,20.10
2022-10-20T04:30:52.582Z,18.60
2022-10-20T04:36:04.752Z,16.67
2022-10-20T04:41:08.512Z,16.00
2022-10-20T04:46:11.673Z,18.43
2022-10-20T04:51:16.131Z,15.40
2022-10-20T04:56:22.031Z,13.13
2022-10-20T05:01:27.604Z,12.27
2022-10-20T05:06:33.321Z,15.03
2022-10-20T05:11:37.952Z,13.23
2022-10-20T05:16:41.261Z,12.57
2022-10-20T05:21:44.633Z,17.63
2022-10-20T05:26:47.974Z,13.73
2022-10-20T05:31:51.191Z,13.27
2022-10-20T05:36:54.962Z,15.40
2022-10-20T05:41:57.923Z,19.27
2022-10-20T05:47:01.582Z,16.63
2022-10-20T05:52:04.713Z,14.50
2022-10-20T05:57:07.802Z,15.63
2022-10-20T06:03:28.122Z,20.77
2022-10-20T06:08:35.197Z,20.37
2022-10-20T06:13:38.564Z,15.27
2022-10-20T06:18:45.550Z,19.47
2022-10-20T06:23:49.282Z,19.03
2022-10-20T06:28:59.831Z,17.37
2022-10-20T06:34:08.024Z,20.20
2022-10-20T06:39:20.343Z,23.37
2022-10-20T06:44:30.941Z,21.50
2022-10-20T06:49:34.248Z,26.60
2022-10-20T06:54:37.797Z,25.90
2022-10-20T06:59:41.080Z,24.00
2022-10-20T07:04:46.254Z,20.37
2022-10-20T07:09:49.563Z,25.00
2022-10-20T07:14:53.033Z,24.20
2022-10-20T07:19:56.904Z,23.30
2022-10-20T07:25:06.333Z,26.73
2022-10-20T07:30:09.679Z,30.37
2022-10-20T07:35:13.659Z,36.43
2022-10-20T07:40:17.113Z,30.27
2022-10-20T07:45:20.406Z,36.30
2022-10-20T07:50:23.884Z,28.23
2022-10-20T07:55:44.023Z,30.70
2022-10-20T08:00:47.804Z,28.70
2022-10-20T08:05:51.315Z,33.60
2022-10-20T08:10:54.954Z,32.83
2022-10-20T08:16:03.719Z,35.03
2022-10-20T08:21:08.088Z,24.27
2022-10-20T08:26:12.660Z,32.60
2022-10-20T08:31:17.474Z,43.03
2022-10-20T08:36:22.065Z,52.57
2022-10-20T08:41:43.540Z,51.47
2022-10-20T08:47:01.912Z,49.23
2022-10-20T08:52:11.646Z,52.27
2022-10-20T08:57:24.504Z,48.80
2022-10-20T09:02:30.699Z,52.13
2022-10-20T09:07:36.672Z,41.87
2022-10-20T09:12:46.300Z,37.53
2022-10-20T09:18:02.766Z,35.73
2022-10-20T09:23:16.670Z,26.07
2022-10-20T09:28:34.986Z,22.37
2022-10-20T09:33:51.650Z,18.37
2022-10-20T09:38:55.646Z,13.30
2022-10-20T09:44:26.181Z,9.50
2022-10-20T09:49:36.579Z,4.53
2022-10-20T09:54:40.111Z,3.20
2022-10-20T09:59:48.015Z,3.17
2022-10-20T10:04:53.373Z,3.13
2022-10-20T10:10:19.800Z,2.30
2022-10-20T10:15:31.124Z,2.67
2022-10-20T10:20:39.134Z,4.53
2022-10-20T10:25:43.155Z,3.17
2022-10-20T10:30:49.461Z,3.57
2022-10-20T10:35:54.014Z,2.70
2022-10-20T10:41:36.583Z,1.83
2022-10-20T10:47:15.075Z,1.90
2022-10-20T10:52:58.504Z,1.13
2022-10-20T10:58:20.562Z,5.27
2022-10-20T11:03:37.689Z,4.00
2022-10-20T11:08:52.234Z,4.27
2022-10-20T11:14:11.646Z,4.60
2022-10-20T11:19:15.276Z,3.27
2022-10-20T11:24:50.374Z,7.20
2022-10-20T11:30:08.740Z,10.43
2022-10-20T11:35:29.644Z,9.50
2022-10-20T11:40:40.045Z,10.80
2022-10-20T11:45:56.459Z,9.73
2022-10-20T11:51:30.967Z,6.63
2022-10-20T11:56:56.853Z,7.37
2022-10-20T12:02:30.034Z,3.53
2022-10-20T12:08:28.906Z,5.37
2022-10-20T12:13:41.533Z,2.83
2022-10-20T12:19:16.103Z,2.43
2022-10-20T12:24:38.690Z,2.87
2022-10-20T12:29:42.532Z,2.73
2022-10-20T12:34:45.809Z,1.37
2022-10-20T12:39:49.121Z,2.57
2022-10-20T12:44:53.194Z,1.83
2022-10-20T12:50:02.302Z,1.23
2022-10-20T12:55:15.893Z,1.10
2022-10-20T13:00:22.968Z,1.57
2022-10-20T13:05:31.694Z,1.77
2022-10-20T13:10:37.303Z,1.40
2022-10-20T13:15:45.356Z,1.97
2022-10-20T13:21:00.894Z,4.53
2022-10-20T13:26:23.293Z,2.27
2022-10-20T13:31:30.681Z,5.10
2022-10-20T13:36:40.242Z,3.80
2022-10-20T13:41:58.495Z,5.93
2022-10-20T13:47:59.574Z,3.17
2022-10-20T13:53:34.997Z,2.20
2022-10-20T13:58:38.352Z,3.13
2022-10-20T14:03:46.770Z,5.60
2022-10-20T14:13:54.293Z,4.27
2022-10-20T14:19:07.213Z,5.13
2022-10-20T14:24:32.750Z,4.30
2022-10-20T14:29:40.184Z,4.43
2022-10-20T14:34:57.497Z,5.10
2022-10-20T14:40:04.916Z,4.40
2022-10-20T14:45:18.376Z,5.33
2022-10-20T14:50:28.684Z,4.93
2022-10-20T14:55:38.033Z,6.43
2022-10-20T15:00:43.594Z,5.70
2022-10-20T15:05:48.991Z,6.83
2022-10-20T15:10:52.235Z,6.93
2022-10-20T15:15:57.290Z,11.00
2022-10-20T15:21:00.886Z,8.57
2022-10-20T15:26:14.485Z,10.70
2022-10-20T15:31:24.081Z,8.07
2022-10-20T15:36:33.601Z,6.13
2022-10-20T15:41:37.847Z,6.93
2022-10-20T15:46:42.763Z,6.70
2022-10-20T15:51:47.649Z,29.73
2022-10-20T15:56:54.748Z,26.73
2022-10-20T16:02:00.345Z,19.13
2022-10-20T16:07:04.383Z,20.00
2022-10-20T16:12:07.803Z,18.37
2022-10-20T16:17:11.248Z,16.00
2022-10-20T16:22:15.121Z,28.77
2022-10-20T16:27:18.767Z,27.27
2022-10-20T16:32:22.482Z,24.17
2022-10-20T16:37:27.376Z,48.83
2022-10-20T16:42:34.723Z,44.40
2022-10-20T16:47:41.752Z,46.77
2022-10-20T16:52:46.058Z,52.27
2022-10-20T16:57:50.344Z,66.63
2022-10-20T17:02:57.584Z,55.97
2022-10-20T17:08:01.604Z,44.37
2022-10-20T17:13:05.230Z,99.43
2022-10-20T17:18:13.637Z,85.67
2022-10-20T17:23:18.635Z,67.83
2022-10-20T17:28:22.665Z,66.80
2022-10-20T17:33:29.214Z,52.27
2022-10-20T17:38:33.918Z,47.40
2022-10-20T17:43:38.256Z,36.90
2022-10-20T17:48:43.338Z,24.50
2022-10-20T17:53:51.457Z,28.40
2022-10-20T17:58:58.685Z,29.43
2022-10-20T18:04:08.922Z,42.87
2022-10-20T18:09:18.494Z,45.80
2022-10-20T18:14:26.640Z,40.80
2022-10-20T18:19:35.249Z,42.33
2022-10-20T18:24:40.878Z,38.40
2022-10-20T18:29:45.600Z,40.13
2022-10-20T18:34:50.093Z,38.97
2022-10-20T18:39:57.009Z,48.23
2022-10-20T18:45:01.544Z,38.80
2022-10-20T18:50:07.973Z,34.93
2022-10-20T18:55:12.208Z,36.63
2022-10-20T19:00:17.324Z,39.77
2022-10-20T19:05:24.400Z,34.27
2022-10-20T19:10:29.145Z,33.13
2022-10-20T19:15:34.802Z,29.53
2022-10-20T19:20:40.234Z,26.03
2022-10-20T19:25:44.064Z,32.57
2022-10-20T19:30:49.088Z,33.57
2022-10-20T19:35:54.027Z,37.10
2022-10-20T19:40:57.744Z,32.80
2022-10-20T19:46:02.424Z,35.83
2022-10-20T19:51:06.216Z,37.10
2022-10-20T19:56:11.505Z,34.27
2022-10-20T20:01:17.122Z,36.63
2022-10-20T20:06:22.784Z,38.23
2022-10-20T20:11:30.346Z,40.63
2022-10-20T20:16:35.523Z,43.97
2022-10-20T20:21:40.334Z,43.10
2022-10-20T20:26:45.231Z,38.67
2022-10-20T20:31:50.085Z,38.20
2022-10-20T20:36:55.484Z,46.03
2022-10-20T20:42:00.616Z,43.67
2022-10-20T20:47:03.900Z,45.00
2022-10-20T20:52:07.115Z,45.57
2022-10-20T20:57:10.417Z,39.30
2022-10-20T21:02:14.742Z,36.13
2022-10-20T21:07:19.757Z,35.10
2022-10-20T21:12:23.271Z,36.90
2022-10-20T21:17:26.614Z,39.60
2022-10-20T21:22:30.132Z,47.77
2022-10-20T21:27:33.488Z,38.10
2022-10-20T21:32:39.706Z,31.13
2022-10-20T21:37:44.324Z,30.50
2022-10-20T21:42:48.173Z,32.90
2022-10-20T21:47:56.171Z,32.23
2022-10-20T21:52:59.532Z,26.17
2022-10-20T21:58:02.796Z,27.90
2022-10-20T22:03:06.173Z,28.60
2022-10-20T22:08:09.414Z,31.00
2022-10-20T22:13:13.079Z,29.33
2022-10-20T22:18:16.346Z,25.77
2022-10-20T22:23:19.724Z,29.10
2022-10-20T22:28:23.283Z,37.87
2022-10-20T22:33:26.628Z,33.20
2022-10-20T22:38:30.317Z,26.20
2022-10-20T22:43:33.703Z,42.87
2022-10-20T22:48:37.309Z,28.27
2022-10-20T22:53:41.371Z,27.60
2022-10-20T22:58:45.723Z,32.90
2022-10-20T23:03:49.396Z,29.13
2022-10-20T23:08:57.351Z,27.17
2022-10-20T23:14:01.254Z,30.50
2022-10-20T23:19:04.333Z,27.23
2022-10-20T23:24:07.653Z,27.23
2022-10-20T23:29:11.194Z,23.97
2022-10-20T23:34:14.462Z,28.30
2022-10-20T23:39:17.894Z,24.53
2022-10-20T23:44:21.583Z,26.53
2022-10-20T23:49:24.906Z,24.20
2022-10-20T23:54:28.223Z,32.07
2022-10-20T23:59:31.643Z,27.43
